createdAt,value
2018-06-27T00:02:10.141Z,84.84
2018-06-27T00:04:37.209Z,85.19
2018-06-27T00:07:04.193Z,85.05
2018-06-27T00:09:31.407Z,84.97
2018-06-27T00:11:58.389Z,85.00
2018-06-27T00:14:25.380Z,84.70
2018-06-27T00:16:52.381Z,84.63
2018-06-27T00:19:19.407Z,84.82
2018-06-27T00:21:46.663Z,85.15
2018-06-27T00:24:13.663Z,85.52
2018-06-27T00:26:40.694Z,85.26
2018-06-27T00:29:07.673Z,85.37
2018-06-27T00:31:35.097Z,85.44
2018-06-27T00:34:02.118Z,85.31
2018-06-27T00:36:29.214Z,85.14
2018-06-27T00:38:56.214Z,85.41
2018-06-27T00:41:23.905Z,85.66
2018-06-27T00:43:50.929Z,85.94
2018-06-27T00:46:17.942Z,85.88
2018-06-27T00:48:44.965Z,86.35
2018-06-27T00:51:11.995Z,85.97
2018-06-27T00:53:44.670Z,85.73
2018-06-27T00:56:11.673Z,86.28
2018-06-27T00:58:38.641Z,86.00
2018-06-27T01:01:05.634Z,86.11
2018-06-27T01:03:32.609Z,86.53
2018-06-27T01:05:59.636Z,86.44
2018-06-27T01:08:26.585Z,86.27
2018-06-27T01:10:53.589Z,86.14
2018-06-27T01:13:20.559Z,86.02
2018-06-27T01:15:47.569Z,86.41
2018-06-27T01:18:14.538Z,85.94
2018-06-27T01:20:41.561Z,86.34
2018-06-27T01:23:08.561Z,86.22
2018-06-27T01:25:35.545Z,86.07
2018-06-27T01:28:02.537Z,86.16
2018-06-27T01:30:29.529Z,86.41
2018-06-27T01:32:56.491Z,86.37
2018-06-27T01:35:23.482Z,86.49
2018-06-27T01:37:50.433Z,86.77
2018-06-27T01:40:17.414Z,86.68
2018-06-27T01:42:44.422Z,86.73
2018-06-27T01:45:11.389Z,86.89
2018-06-27T01:47:38.413Z,86.50
2018-06-27T01:50:05.389Z,86.61
2018-06-27T01:52:32.846Z,86.91
2018-06-27T01:54:59.809Z,86.79
2018-06-27T01:57:27.133Z,86.87
2018-06-27T01:59:54.222Z,86.74
2018-06-27T02:02:21.234Z,86.92
2018-06-27T02:04:48.209Z,86.84
2018-06-27T02:07:15.181Z,86.94
2018-06-27T02:09:42.149Z,87.02
2018-06-27T02:12:09.129Z,87.05
2018-06-27T02:14:36.094Z,87.17
2018-06-27T02:17:03.102Z,87.03
2018-06-27T02:19:30.077Z,87.25
2018-06-27T02:21:57.148Z,86.92
2018-06-27T02:24:24.124Z,87.38
2018-06-27T02:26:51.161Z,87.44
2018-06-27T02:29:18.218Z,87.84
2018-06-27T02:31:45.393Z,87.99
2018-06-27T02:34:12.365Z,87.79
2018-06-27T02:36:39.479Z,87.48
2018-06-27T02:39:07.974Z,88.19
2018-06-27T02:41:35.625Z,87.58
2018-06-27T02:44:02.609Z,87.58
2018-06-27T02:46:29.674Z,87.47
2018-06-27T02:48:56.637Z,87.54
2018-06-27T02:51:23.645Z,87.46
2018-06-27T02:53:50.625Z,87.23
2018-06-27T02:56:17.599Z,87.07
2018-06-27T02:58:44.577Z,87.63
2018-06-27T03:01:11.583Z,87.30
2018-06-27T03:03:38.566Z,87.43
2018-06-27T03:06:05.601Z,87.32
2018-06-27T03:08:32.593Z,87.77
2018-06-27T03:10:59.558Z,87.29
2018-06-27T03:13:26.530Z,87.40
2018-06-27T03:15:56.345Z,87.00
2018-06-27T03:18:23.333Z,87.24
2018-06-27T03:20:50.297Z,86.94
2018-06-27T03:23:17.586Z,87.05
2018-06-27T03:25:44.602Z,86.58
2018-06-27T03:28:11.617Z,86.69
2018-06-27T03:30:38.581Z,86.46
2018-06-27T03:33:05.622Z,86.83
2018-06-27T03:35:32.661Z,86.76
2018-06-27T03:37:59.641Z,86.73
2018-06-27T03:40:26.605Z,86.81
2018-06-27T03:42:53.589Z,86.35
2018-06-27T03:45:20.569Z,86.50
2018-06-27T03:47:47.764Z,86.08
2018-06-27T03:50:14.778Z,86.27
2018-06-27T03:52:44.661Z,86.40
2018-06-27T03:55:11.665Z,86.04
2018-06-27T03:57:38.737Z,85.37
2018-06-27T04:00:05.677Z,85.58
2018-06-27T04:02:32.657Z,85.62
2018-06-27T04:04:59.631Z,85.80
2018-06-27T04:07:26.609Z,85.75
2018-06-27T04:09:53.585Z,85.46
2018-06-27T04:12:20.548Z,85.63
2018-06-27T04:14:47.501Z,85.84
2018-06-27T04:17:14.593Z,85.46
2018-06-27T04:19:41.605Z,85.22
2018-06-27T04:22:08.572Z,85.46
2018-06-27T04:24:35.553Z,85.05
2018-06-27T04:27:02.521Z,84.97
2018-06-27T04:29:29.539Z,84.75
2018-06-27T04:31:56.517Z,84.89
2018-06-27T04:34:23.601Z,84.61
2018-06-27T04:36:50.589Z,84.16
2018-06-27T04:39:17.552Z,84.40
2018-06-27T04:41:44.526Z,83.64
2018-06-27T04:44:11.721Z,83.23
2018-06-27T04:46:38.873Z,83.84
2018-06-27T04:49:06.106Z,83.43
2018-06-27T04:51:33.539Z,83.17
2018-06-27T04:54:00.557Z,83.04
2018-06-27T04:56:27.569Z,83.11
2018-06-27T04:58:54.569Z,82.33
2018-06-27T05:01:21.569Z,82.39
2018-06-27T05:03:48.605Z,82.51
2018-06-27T05:06:15.609Z,82.86
2018-06-27T05:08:42.605Z,82.62
2018-06-27T05:11:09.601Z,82.23
2018-06-27T05:13:36.595Z,82.12
2018-06-27T05:16:03.678Z,82.42
2018-06-27T05:18:30.596Z,82.16
2018-06-27T05:20:57.565Z,81.66
2018-06-27T05:23:24.547Z,81.61
2018-06-27T05:25:51.523Z,81.19
2018-06-27T05:28:18.541Z,81.51
2018-06-27T05:30:45.498Z,81.70
2018-06-27T05:33:12.541Z,81.72
2018-06-27T05:35:39.507Z,81.06
2018-06-27T05:38:06.510Z,81.08
2018-06-27T05:40:33.469Z,80.74
2018-06-27T05:43:00.475Z,80.90
2018-06-27T05:45:27.469Z,80.47
2018-06-27T05:47:54.428Z,80.13
2018-06-27T05:50:21.416Z,79.10
2018-06-27T05:52:48.386Z,79.05
2018-06-27T05:55:15.369Z,78.90
2018-06-27T05:57:42.337Z,78.33
2018-06-27T06:00:11.450Z,78.36
2018-06-27T06:02:38.415Z,79.00
2018-06-27T06:05:05.429Z,78.17
2018-06-27T06:07:32.423Z,77.56
2018-06-27T06:09:59.430Z,77.60
2018-06-27T06:12:26.468Z,77.39
2018-06-27T06:14:53.984Z,77.42
2018-06-27T06:17:21.261Z,77.03
2018-06-27T06:19:48.339Z,77.01
2018-06-27T06:22:15.230Z,77.06
2018-06-27T06:24:43.772Z,77.31
2018-06-27T06:27:11.886Z,76.84
2018-06-27T06:29:38.909Z,76.24
2018-06-27T06:32:06.256Z,76.36
2018-06-27T06:34:33.189Z,76.08
2018-06-27T06:37:00.154Z,75.85
2018-06-27T06:39:27.118Z,75.86
2018-06-27T06:41:54.126Z,75.74
2018-06-27T06:44:21.097Z,75.90
2018-06-27T06:46:48.066Z,75.76
2018-06-27T06:49:15.113Z,75.40
2018-06-27T06:51:42.105Z,74.68
2018-06-27T06:54:09.086Z,75.00
2018-06-27T06:56:36.062Z,74.29
2018-06-27T06:59:03.093Z,73.58
2018-06-27T07:01:30.078Z,73.02
2018-06-27T07:03:57.080Z,71.54
2018-06-27T07:06:24.034Z,69.60
2018-06-27T07:08:51.301Z,69.88
2018-06-27T07:11:18.463Z,69.11
2018-06-27T07:13:45.301Z,67.41
2018-06-27T07:16:12.469Z,66.95
2018-06-27T07:18:39.438Z,66.44
2018-06-27T07:21:06.466Z,66.05
2018-06-27T07:23:34.201Z,65.90
2018-06-27T07:26:01.277Z,66.00
2018-06-27T07:28:28.343Z,65.66
2018-06-27T07:30:55.366Z,63.98
2018-06-27T07:33:22.402Z,64.27
2018-06-27T07:35:49.419Z,64.24
2018-06-27T07:38:16.337Z,62.40
2018-06-27T07:40:43.330Z,62.53
2018-06-27T07:43:10.289Z,61.31
2018-06-27T07:45:37.273Z,59.93
2018-06-27T07:48:04.257Z,59.52
2018-06-27T07:50:31.265Z,59.42
2018-06-27T07:52:58.253Z,58.45
2018-06-27T07:55:25.209Z,57.79
2018-06-27T07:57:52.174Z,56.17
2018-06-27T08:00:19.370Z,55.96
2018-06-27T08:02:46.413Z,54.71
2018-06-27T08:05:13.445Z,54.90
2018-06-27T08:07:40.437Z,55.07
2018-06-27T08:10:07.389Z,54.31
2018-06-27T08:12:34.529Z,53.00
2018-06-27T08:15:01.497Z,53.70
2018-06-27T08:17:28.453Z,49.56
2018-06-27T08:19:55.586Z,47.36
2018-06-27T08:22:22.837Z,49.21
2018-06-27T08:24:49.845Z,49.39
2018-06-27T08:27:16.840Z,49.01
2018-06-27T08:29:43.809Z,47.96
2018-06-27T08:32:10.802Z,47.68
2018-06-27T08:34:37.782Z,46.70
2018-06-27T08:37:04.843Z,47.72
2018-06-27T08:39:31.806Z,48.08
2018-06-27T08:41:58.793Z,47.91
2018-06-27T08:44:25.804Z,48.86
2018-06-27T08:46:52.866Z,47.86
2018-06-27T08:49:19.826Z,48.18
2018-06-27T08:51:46.874Z,47.96
2018-06-27T08:54:13.835Z,46.23
2018-06-27T08:56:40.865Z,46.70
2018-06-27T08:59:07.850Z,47.58
2018-06-27T09:01:34.854Z,46.64
2018-06-27T09:04:01.817Z,47.91
2018-06-27T09:06:28.806Z,48.47
2018-06-27T09:08:55.893Z,45.93
2018-06-27T09:11:22.905Z,47.15
2018-06-27T09:13:49.889Z,47.82
2018-06-27T09:16:17.133Z,47.88
2018-06-27T09:18:44.222Z,47.17
2018-06-27T09:21:11.190Z,46.96
2018-06-27T09:23:38.213Z,46.56
2018-06-27T09:26:05.181Z,45.23
2018-06-27T09:28:32.266Z,46.24
2018-06-27T09:30:59.337Z,46.99
2018-06-27T09:33:26.334Z,47.78
2018-06-27T09:35:53.330Z,47.49
2018-06-27T09:38:20.317Z,45.48
2018-06-27T09:40:47.445Z,45.49
2018-06-27T09:43:15.426Z,44.76
2018-06-27T09:45:42.445Z,45.68
2018-06-27T09:48:09.510Z,46.51
2018-06-27T09:50:36.642Z,46.06
2018-06-27T09:53:03.642Z,45.11
2018-06-27T09:55:30.649Z,45.38
2018-06-27T09:57:57.672Z,46.64
2018-06-27T10:00:30.385Z,47.04
2018-06-27T10:02:57.417Z,46.89
2018-06-27T10:05:24.435Z,46.30
2018-06-27T10:07:51.630Z,45.53
2018-06-27T10:10:18.594Z,44.17
2018-06-27T10:12:45.601Z,44.15
2018-06-27T10:15:12.609Z,40.87
2018-06-27T10:17:39.614Z,40.20
2018-06-27T10:20:07.213Z,41.88
2018-06-27T10:22:34.198Z,41.83
2018-06-27T10:25:01.170Z,39.37
2018-06-27T10:27:28.278Z,40.27
2018-06-27T10:29:55.245Z,40.92
2018-06-27T10:32:22.237Z,40.16
2018-06-27T10:34:49.279Z,41.50
2018-06-27T10:37:16.254Z,41.85
2018-06-27T10:39:43.299Z,41.48
2018-06-27T10:42:10.310Z,40.83
2018-06-27T10:44:37.384Z,39.62
2018-06-27T10:47:04.533Z,40.46
2018-06-27T10:49:31.517Z,41.04
2018-06-27T10:51:58.498Z,40.26
2018-06-27T10:54:25.501Z,41.07
2018-06-27T10:56:52.486Z,40.22
2018-06-27T10:59:19.461Z,40.24
2018-06-27T11:01:46.570Z,38.69
2018-06-27T11:04:13.586Z,39.53
2018-06-27T11:06:40.553Z,38.76
2018-06-27T11:09:08.183Z,39.19
2018-06-27T11:11:35.166Z,39.09
2018-06-27T11:14:02.213Z,38.43
2018-06-27T11:16:29.197Z,40.17
2018-06-27T11:18:56.190Z,39.73
2018-06-27T11:21:23.177Z,38.61
2018-06-27T11:23:50.202Z,37.90
2018-06-27T11:26:17.165Z,39.10
2018-06-27T11:28:44.137Z,38.59
2018-06-27T11:31:11.098Z,38.63
2018-06-27T11:33:38.077Z,37.56
2018-06-27T11:36:05.074Z,38.34
2018-06-27T11:38:32.112Z,38.11
2018-06-27T11:40:59.052Z,37.57
2018-06-27T11:43:26.038Z,38.40
2018-06-27T11:45:53.010Z,37.59
2018-06-27T11:48:20.160Z,38.41
2018-06-27T11:50:47.149Z,38.27
2018-06-27T11:53:14.173Z,36.63
2018-06-27T11:55:41.100Z,37.92
2018-06-27T11:58:09.085Z,36.28
2018-06-27T12:00:36.070Z,37.47
2018-06-27T12:03:03.065Z,37.22
2018-06-27T12:05:30.042Z,37.21
2018-06-27T12:07:56.997Z,37.12
2018-06-27T12:10:24.014Z,36.81
2018-06-27T12:12:51.042Z,35.98
2018-06-27T12:15:18.053Z,38.14
2018-06-27T12:17:45.022Z,36.29
2018-06-27T12:20:12.163Z,37.02
2018-06-27T12:22:39.138Z,36.64
2018-06-27T12:25:06.474Z,36.54
2018-06-27T12:27:33.505Z,35.90
2018-06-27T12:30:00.627Z,35.97
2018-06-27T12:32:27.646Z,36.41
2018-06-27T12:34:54.633Z,36.43
2018-06-27T12:37:21.633Z,36.64
2018-06-27T12:39:48.614Z,35.94
2018-06-27T12:42:15.592Z,35.95
2018-06-27T12:44:42.625Z,35.37
2018-06-27T12:47:09.686Z,36.86
2018-06-27T12:49:36.666Z,36.86
2018-06-27T12:52:03.660Z,36.02
2018-06-27T12:54:30.678Z,35.07
2018-06-27T12:56:57.657Z,35.82
2018-06-27T12:59:24.757Z,35.77
2018-06-27T13:01:51.750Z,35.29
2018-06-27T13:04:18.718Z,35.47
2018-06-27T13:06:45.736Z,35.27
2018-06-27T13:09:12.925Z,35.74
2018-06-27T13:11:40.913Z,35.84
2018-06-27T13:14:08.178Z,36.04
2018-06-27T13:16:35.520Z,36.19
2018-06-27T13:19:02.534Z,35.99
2018-06-27T13:21:29.581Z,35.41
2018-06-27T13:23:56.571Z,34.25
2018-06-27T13:26:23.631Z,35.15
2018-06-27T13:28:50.630Z,35.76
2018-06-27T13:31:17.646Z,34.65
2018-06-27T13:33:44.701Z,34.78
2018-06-27T13:36:11.834Z,34.31
2018-06-27T13:38:38.821Z,34.59
2018-06-27T13:41:07.395Z,34.31
2018-06-27T13:43:34.449Z,34.08
2018-06-27T13:46:01.474Z,34.75
2018-06-27T13:48:28.458Z,33.47
2018-06-27T13:50:55.440Z,34.88
2018-06-27T13:53:22.442Z,34.44
2018-06-27T13:55:49.421Z,34.66
2018-06-27T13:58:16.433Z,34.39
2018-06-27T14:00:43.519Z,35.29
2018-06-27T14:03:10.537Z,34.66
2018-06-27T14:05:37.562Z,33.53
2018-06-27T14:08:04.921Z,34.25
2018-06-27T14:10:31.910Z,34.63
2018-06-27T14:12:58.870Z,34.34
2018-06-27T14:15:25.845Z,33.42
2018-06-27T14:17:52.830Z,34.32
2018-06-27T14:20:19.821Z,33.58
2018-06-27T14:22:46.802Z,33.17
2018-06-27T14:25:14.042Z,32.79
2018-06-27T14:27:41.041Z,32.61
2018-06-27T14:30:08.855Z,33.09
2018-06-27T14:32:35.867Z,32.29
2018-06-27T14:35:02.903Z,32.62
2018-06-27T14:37:29.913Z,33.04
2018-06-27T14:39:56.921Z,32.75
2018-06-27T14:42:23.902Z,32.32
2018-06-27T14:44:50.893Z,32.48
2018-06-27T14:47:17.881Z,32.32
2018-06-27T14:49:44.859Z,33.45
2018-06-27T14:52:11.865Z,33.56
2018-06-27T14:54:38.838Z,33.48
2018-06-27T14:57:05.895Z,33.69
2018-06-27T14:59:32.899Z,34.58
2018-06-27T15:01:59.857Z,34.92
2018-06-27T15:04:26.857Z,33.82
2018-06-27T15:06:53.861Z,34.25
2018-06-27T15:09:20.866Z,34.04
2018-06-27T15:11:47.849Z,34.58
2018-06-27T15:14:14.833Z,33.99
2018-06-27T15:16:41.925Z,34.71
2018-06-27T15:19:09.249Z,34.04
2018-06-27T15:21:36.253Z,34.49
2018-06-27T15:24:03.250Z,33.26
2018-06-27T15:26:32.441Z,34.11
2018-06-27T15:29:00.130Z,34.00
2018-06-27T15:31:27.207Z,33.63
2018-06-27T15:33:54.712Z,34.61
2018-06-27T15:36:21.777Z,34.62
2018-06-27T15:38:48.760Z,34.99
2018-06-27T15:41:15.763Z,34.38
2018-06-27T15:43:42.749Z,34.12
2018-06-27T15:46:09.764Z,34.35
2018-06-27T15:48:36.775Z,35.36
2018-06-27T15:51:03.773Z,33.45
2018-06-27T15:53:30.741Z,34.47
2018-06-27T15:55:57.789Z,34.76
2018-06-27T15:58:24.829Z,34.95
2018-06-27T16:00:51.826Z,34.50
2018-06-27T16:03:18.817Z,34.63
2018-06-27T16:05:45.802Z,34.36
2018-06-27T16:08:13.446Z,34.45
2018-06-27T16:10:40.505Z,34.39
2018-06-27T16:13:07.497Z,34.40
2018-06-27T16:15:34.521Z,34.76
2018-06-27T16:18:01.532Z,35.49
2018-06-27T16:20:28.578Z,36.45
2018-06-27T16:22:55.553Z,37.37
2018-06-27T16:25:22.565Z,37.08
2018-06-27T16:27:49.545Z,37.82
2018-06-27T16:30:16.545Z,37.96
2018-06-27T16:32:43.538Z,39.01
2018-06-27T16:35:10.537Z,38.61
2018-06-27T16:37:37.537Z,39.37
2018-06-27T16:40:04.530Z,41.25
2018-06-27T16:42:31.521Z,42.46
2018-06-27T16:44:58.490Z,42.46
2018-06-27T16:47:25.486Z,43.13
2018-06-27T16:49:52.534Z,43.28
2018-06-27T16:52:19.530Z,44.30
2018-06-27T16:54:46.616Z,44.98
2018-06-27T16:57:13.687Z,45.90
2018-06-27T16:59:40.638Z,46.31
2018-06-27T17:02:07.650Z,46.15
2018-06-27T17:04:34.798Z,46.40
2018-06-27T17:07:01.807Z,45.63
2018-06-27T17:09:28.762Z,45.46
2018-06-27T17:11:55.745Z,45.65
2018-06-27T17:14:22.709Z,45.49
2018-06-27T17:16:49.705Z,46.69
2018-06-27T17:19:16.737Z,47.10
2018-06-27T17:21:43.745Z,47.08
2018-06-27T17:24:10.737Z,47.38
2018-06-27T17:26:37.737Z,47.51
2018-06-27T17:29:04.761Z,47.94
2018-06-27T17:31:31.775Z,48.01
2018-06-27T17:33:58.770Z,47.16
2018-06-27T17:36:25.809Z,48.22
2018-06-27T17:38:52.810Z,47.66
2018-06-27T17:41:19.814Z,48.06
2018-06-27T17:43:46.878Z,48.04
2018-06-27T17:46:13.938Z,47.93
2018-06-27T17:48:41.090Z,47.41
2018-06-27T17:51:08.080Z,47.83
2018-06-27T17:53:35.078Z,46.97
2018-06-27T17:56:02.050Z,47.20
2018-06-27T17:58:29.053Z,46.72
2018-06-27T18:00:56.090Z,46.37
2018-06-27T18:03:23.153Z,47.69
2018-06-27T18:05:50.114Z,46.90
2018-06-27T18:08:17.121Z,46.97
2018-06-27T18:10:44.090Z,46.52
2018-06-27T18:13:11.078Z,46.23
2018-06-27T18:15:38.118Z,46.34
2018-06-27T18:18:05.105Z,45.80
2018-06-27T18:20:34.274Z,46.06
2018-06-27T18:23:08.561Z,45.70
2018-06-27T18:25:35.561Z,45.23
2018-06-27T18:28:02.597Z,45.76
2018-06-27T18:30:29.590Z,45.27
2018-06-27T18:32:56.746Z,45.75
2018-06-27T18:35:23.930Z,46.01
2018-06-27T18:37:50.933Z,46.15
2018-06-27T18:40:17.955Z,46.40
2018-06-27T18:42:44.978Z,47.68
2018-06-27T18:45:11.904Z,48.08
2018-06-27T18:47:38.942Z,48.17
2018-06-27T18:50:05.953Z,48.78
2018-06-27T18:52:32.930Z,49.49
2018-06-27T18:54:59.934Z,50.30
2018-06-27T18:57:26.943Z,50.09
2018-06-27T18:59:53.977Z,50.93
2018-06-27T19:02:20.997Z,50.68
2018-06-27T19:04:47.958Z,51.65
2018-06-27T19:07:14.961Z,51.39
2018-06-27T19:09:41.970Z,52.40
2018-06-27T19:12:08.950Z,52.86
2018-06-27T19:14:35.914Z,52.86
2018-06-27T19:17:02.921Z,53.51
2018-06-27T19:19:30.199Z,53.44
2018-06-27T19:21:57.182Z,53.86
2018-06-27T19:24:24.151Z,53.39
2018-06-27T19:26:51.130Z,53.73
2018-06-27T19:29:18.110Z,54.16
2018-06-27T19:31:45.229Z,54.56
2018-06-27T19:34:12.213Z,54.83
2018-06-27T19:36:39.209Z,54.73
2018-06-27T19:39:08.480Z,55.50
2018-06-27T19:41:35.702Z,55.35
2018-06-27T19:44:02.864Z,54.84
2018-06-27T19:46:29.830Z,55.13
2018-06-27T19:48:56.817Z,56.06
2018-06-27T19:51:23.799Z,55.79
2018-06-27T19:53:51.353Z,56.51
2018-06-27T19:56:18.330Z,56.19
2018-06-27T19:58:45.354Z,56.67
2018-06-27T20:01:12.329Z,56.33
2018-06-27T20:03:39.362Z,56.36
2018-06-27T20:06:06.380Z,57.32
2018-06-27T20:08:33.371Z,56.89
2018-06-27T20:11:00.337Z,57.03
2018-06-27T20:13:27.670Z,57.80
2018-06-27T20:15:55.362Z,57.79
2018-06-27T20:18:22.278Z,58.26
2018-06-27T20:20:49.306Z,58.38
2018-06-27T20:23:16.282Z,58.44
2018-06-27T20:25:43.294Z,58.65
2018-06-27T20:28:10.299Z,58.82
2018-06-27T20:30:37.301Z,58.82
2018-06-27T20:33:04.542Z,59.72
2018-06-27T20:35:31.510Z,60.00
2018-06-27T20:37:58.492Z,59.54
2018-06-27T20:40:25.469Z,60.60
2018-06-27T20:42:52.486Z,60.51
2018-06-27T20:45:19.473Z,60.91
2018-06-27T20:47:46.446Z,60.94
2018-06-27T20:50:13.694Z,60.77
2018-06-27T20:52:40.758Z,61.56
2018-06-27T20:55:07.773Z,61.43
2018-06-27T20:57:34.910Z,61.80
2018-06-27T21:00:01.979Z,61.87
2018-06-27T21:02:28.933Z,62.00
2018-06-27T21:04:55.929Z,62.01
2018-06-27T21:07:22.886Z,62.24
2018-06-27T21:09:50.017Z,62.72
2018-06-27T21:12:17.011Z,62.96
2018-06-27T21:14:44.031Z,62.77
2018-06-27T21:17:11.022Z,63.49
2018-06-27T21:19:38.058Z,63.68
2018-06-27T21:22:05.379Z,64.33
2018-06-27T21:24:32.371Z,64.49
2018-06-27T21:26:59.446Z,64.05
2018-06-27T21:29:26.497Z,64.62
2018-06-27T21:31:53.826Z,64.74
2018-06-27T21:34:20.865Z,64.73
2018-06-27T21:36:47.894Z,64.88
2018-06-27T21:39:14.897Z,65.39
2018-06-27T21:41:41.886Z,65.80
2018-06-27T21:44:08.886Z,66.05
2018-06-27T21:46:35.873Z,65.68
2018-06-27T21:49:02.915Z,65.81
2018-06-27T21:51:29.926Z,66.37
2018-06-27T21:53:56.881Z,66.52
2018-06-27T21:56:23.878Z,66.53
2018-06-27T21:58:50.845Z,66.91
2018-06-27T22:01:18.047Z,66.83
2018-06-27T22:03:45.051Z,67.12
2018-06-27T22:06:12.053Z,67.22
2018-06-27T22:08:39.030Z,67.07
2018-06-27T22:11:06.026Z,67.61
2018-06-27T22:13:33.022Z,67.74
2018-06-27T22:16:00.048Z,67.58
2018-06-27T22:18:27.091Z,67.76
2018-06-27T22:20:54.093Z,67.70
2018-06-27T22:23:21.179Z,68.36
2018-06-27T22:25:48.167Z,68.32
2018-06-27T22:28:15.146Z,68.11
2018-06-27T22:30:42.177Z,68.45
2018-06-27T22:33:09.169Z,68.53
2018-06-27T22:35:36.374Z,68.76
2018-06-27T22:38:03.489Z,69.44
2018-06-27T22:40:30.521Z,68.34
2018-06-27T22:42:57.489Z,68.58
2018-06-27T22:45:24.491Z,68.42
2018-06-27T22:47:51.539Z,68.39
2018-06-27T22:50:18.553Z,68.62
2018-06-27T22:52:45.541Z,68.40
2018-06-27T22:55:12.574Z,68.31
2018-06-27T22:57:39.564Z,68.81
2018-06-27T23:00:06.886Z,68.50
2018-06-27T23:02:33.957Z,68.06
2018-06-27T23:05:00.959Z,68.82
2018-06-27T23:07:27.965Z,68.14
2018-06-27T23:09:54.965Z,68.20
2018-06-27T23:12:21.937Z,67.92
2018-06-27T23:14:48.989Z,67.92
2018-06-27T23:17:16.033Z,67.74
2018-06-27T23:19:43.193Z,68.19
2018-06-27T23:22:49.993Z,68.01
2018-06-27T23:25:17.008Z,67.99
2018-06-27T23:27:44.507Z,67.47
2018-06-27T23:30:11.534Z,66.96
2018-06-27T23:32:39.097Z,67.13
2018-06-27T23:35:06.206Z,66.79
2018-06-27T23:37:33.221Z,66.87
2018-06-27T23:40:00.633Z,66.65
2018-06-27T23:42:27.669Z,66.73
2018-06-27T23:44:54.701Z,66.78
2018-06-27T23:47:21.773Z,66.98
2018-06-27T23:49:48.763Z,67.16
2018-06-27T23:52:15.866Z,66.83
2018-06-27T23:54:42.881Z,66.69
2018-06-27T23:57:09.921Z,67.27
2018-06-27T23:59:36.902Z,67.32
